sensor_id;sensor_type;location;lat;lon;timestamp;P1;durP1;ratioP1;P2;durP2;ratioP2
62880;SDS011;48969;49.934;8.596;2022-11-04T00:01:14;16.95;;;14.50;;
62880;SDS011;48969;49.934;8.596;2022-11-04T00:03:39;17.30;;;13.77;;
62880;SDS011;48969;49.934;8.596;2022-11-04T00:06:04;19.80;;;13.80;;
62880;SDS011;48969;49.934;8.596;2022-11-04T00:08:30;14.75;;;12.45;;
62880;SDS011;48969;49.934;8.596;2022-11-04T00:10:56;18.30;;;12.93;;
62880;SDS011;48969;49.934;8.596;2022-11-04T00:13:40;14.55;;;11.82;;
62880;SDS011;48969;49.934;8.596;2022-11-04T00:16:05;14.45;;;11.55;;
62880;SDS011;48969;49.934;8.596;2022-11-04T00:18:48;14.00;;;11.18;;
62880;SDS011;48969;49.934;8.596;2022-11-04T00:21:14;12.93;;;10.63;;
62880;SDS011;48969;49.934;8.596;2022-11-04T00:23:57;12.00;;;9.88;;
62880;SDS011;48969;49.934;8.596;2022-11-04T00:26:41;13.30;;;10.75;;
62880;SDS011;48969;49.934;8.596;2022-11-04T00:29:25;11.68;;;9.80;;
62880;SDS011;48969;49.934;8.596;2022-11-04T00:31:50;12.83;;;9.50;;
62880;SDS011;48969;49.934;8.596;2022-11-04T00:34:34;11.38;;;9.27;;
62880;SDS011;48969;49.934;8.596;2022-11-04T00:36:59;12.60;;;9.53;;
62880;SDS011;48969;49.934;8.596;2022-11-04T00:39:26;10.73;;;8.35;;
62880;SDS011;48969;49.934;8.596;2022-11-04T00:41:52;10.53;;;7.97;;
62880;SDS011;48969;49.934;8.596;2022-11-04T00:44:17;9.05;;;7.47;;
62880;SDS011;48969;49.934;8.596;2022-11-04T00:46:42;7.68;;;6.35;;
62880;SDS011;48969;49.934;8.596;2022-11-04T00:49:07;8.40;;;6.00;;
62880;SDS011;48969;49.934;8.596;2022-11-04T00:51:32;7.18;;;5.80;;
62880;SDS011;48969;49.934;8.596;2022-11-04T00:53:57;8.47;;;5.63;;
62880;SDS011;48969;49.934;8.596;2022-11-04T00:56:23;7.35;;;4.90;;
62880;SDS011;48969;49.934;8.596;2022-11-04T00:58:48;6.23;;;3.97;;
62880;SDS011;48969;49.934;8.596;2022-11-04T01:01:14;4.10;;;3.47;;
62880;SDS011;48969;49.934;8.596;2022-11-04T01:03:49;3.95;;;2.80;;
62880;SDS011;48969;49.934;8.596;2022-11-04T01:06:16;4.18;;;2.85;;
62880;SDS011;48969;49.934;8.596;2022-11-04T01:08:41;3.72;;;2.60;;
62880;SDS011;48969;49.934;8.596;2022-11-04T01:11:07;3.25;;;2.47;;
62880;SDS011;48969;49.934;8.596;2022-11-04T01:13:33;3.58;;;2.30;;
62880;SDS011;48969;49.934;8.596;2022-11-04T01:15:58;2.95;;;2.30;;
62880;SDS011;48969;49.934;8.596;2022-11-04T01:18:24;2.90;;;2.00;;
62880;SDS011;48969;49.934;8.596;2022-11-04T01:20:49;2.67;;;2.20;;
62880;SDS011;48969;49.934;8.596;2022-11-04T01:23:15;3.40;;;2.03;;
62880;SDS011;48969;49.934;8.596;2022-11-04T01:25:40;2.42;;;1.98;;
62880;SDS011;48969;49.934;8.596;2022-11-04T01:28:06;2.88;;;2.05;;
62880;SDS011;48969;49.934;8.596;2022-11-04T01:30:31;3.00;;;1.88;;
62880;SDS011;48969;49.934;8.596;2022-11-04T01:32:56;4.22;;;2.00;;
62880;SDS011;48969;49.934;8.596;2022-11-04T01:35:21;2.00;;;1.80;;
62880;SDS011;48969;49.934;8.596;2022-11-04T01:37:46;2.07;;;1.60;;
62880;SDS011;48969;49.934;8.596;2022-11-04T01:40:11;2.40;;;1.90;;
62880;SDS011;48969;49.934;8.596;2022-11-04T01:42:36;2.92;;;1.85;;
62880;SDS011;48969;49.934;8.596;2022-11-04T01:45:02;1.43;;;1.27;;
62880;SDS011;48969;49.934;8.596;2022-11-04T01:49:57;2.63;;;1.40;;
62880;SDS011;48969;49.934;8.596;2022-11-04T01:52:28;3.60;;;1.50;;
62880;SDS011;48969;49.934;8.596;2022-11-04T01:54:56;1.60;;;1.50;;
62880;SDS011;48969;49.934;8.596;2022-11-04T01:57:24;1.55;;;1.30;;
62880;SDS011;48969;49.934;8.596;2022-11-04T01:59:51;2.60;;;1.40;;
62880;SDS011;48969;49.934;8.596;2022-11-04T02:02:16;1.40;;;1.30;;
62880;SDS011;48969;49.934;8.596;2022-11-04T02:04:42;1.40;;;1.30;;
62880;SDS011;48969;49.934;8.596;2022-11-04T02:07:08;1.70;;;1.10;;
62880;SDS011;48969;49.934;8.596;2022-11-04T02:09:34;2.08;;;1.30;;
62880;SDS011;48969;49.934;8.596;2022-11-04T02:12:00;1.20;;;1.10;;
62880;SDS011;48969;49.934;8.596;2022-11-04T02:14:44;1.42;;;1.25;;
62880;SDS011;48969;49.934;8.596;2022-11-04T02:25:04;1.48;;;1.20;;
62880;SDS011;48969;49.934;8.596;2022-11-04T02:30:17;1.63;;;1.23;;
62880;SDS011;48969;49.934;8.596;2022-11-04T02:35:25;1.42;;;1.10;;
62880;SDS011;48969;49.934;8.596;2022-11-04T02:43:13;2.03;;;1.00;;
62880;SDS011;48969;49.934;8.596;2022-11-04T02:45:43;1.58;;;1.13;;
62880;SDS011;48969;49.934;8.596;2022-11-04T02:48:32;2.85;;;1.05;;
62880;SDS011;48969;49.934;8.596;2022-11-04T02:51:10;1.20;;;0.98;;
62880;SDS011;48969;49.934;8.596;2022-11-04T02:53:49;1.33;;;1.20;;
62880;SDS011;48969;49.934;8.596;2022-11-04T02:56:17;2.53;;;1.27;;
62880;SDS011;48969;49.934;8.596;2022-11-04T02:58:45;1.40;;;1.23;;
62880;SDS011;48969;49.934;8.596;2022-11-04T03:01:13;2.63;;;1.38;;
62880;SDS011;48969;49.934;8.596;2022-11-04T03:03:42;1.58;;;1.30;;
62880;SDS011;48969;49.934;8.596;2022-11-04T03:06:09;2.75;;;1.40;;
62880;SDS011;48969;49.934;8.596;2022-11-04T03:08:44;2.80;;;1.25;;
62880;SDS011;48969;49.934;8.596;2022-11-04T03:11:11;2.50;;;1.25;;
62880;SDS011;48969;49.934;8.596;2022-11-04T03:13:45;2.13;;;1.10;;
62880;SDS011;48969;49.934;8.596;2022-11-04T03:16:14;1.90;;;1.17;;
62880;SDS011;48969;49.934;8.596;2022-11-04T03:21:44;2.72;;;1.50;;
62880;SDS011;48969;49.934;8.596;2022-11-04T03:24:11;2.65;;;1.27;;
62880;SDS011;48969;49.934;8.596;2022-11-04T03:31:37;3.33;;;1.38;;
62880;SDS011;48969;49.934;8.596;2022-11-04T03:34:04;2.20;;;1.35;;
62880;SDS011;48969;49.934;8.596;2022-11-04T03:36:29;2.92;;;1.25;;
62880;SDS011;48969;49.934;8.596;2022-11-04T03:38:54;3.75;;;1.35;;
62880;SDS011;48969;49.934;8.596;2022-11-04T03:41:32;2.85;;;1.42;;
62880;SDS011;48969;49.934;8.596;2022-11-04T03:43:58;2.42;;;1.48;;
62880;SDS011;48969;49.934;8.596;2022-11-04T03:46:23;3.38;;;1.50;;
62880;SDS011;48969;49.934;8.596;2022-11-04T03:48:50;3.22;;;1.55;;
62880;SDS011;48969;49.934;8.596;2022-11-04T03:51:15;2.78;;;1.48;;
62880;SDS011;48969;49.934;8.596;2022-11-04T03:53:40;2.22;;;1.70;;
62880;SDS011;48969;49.934;8.596;2022-11-04T04:04:00;3.15;;;1.58;;
62880;SDS011;48969;49.934;8.596;2022-11-04T04:06:32;3.45;;;1.70;;
62880;SDS011;48969;49.934;8.596;2022-11-04T04:09:09;2.20;;;1.50;;
62880;SDS011;48969;49.934;8.596;2022-11-04T04:16:37;3.13;;;1.63;;
62880;SDS011;48969;49.934;8.596;2022-11-04T04:19:11;3.53;;;2.03;;
62880;SDS011;48969;49.934;8.596;2022-11-04T04:21:44;3.58;;;1.70;;
62880;SDS011;48969;49.934;8.596;2022-11-04T04:24:11;6.10;;;1.92;;
62880;SDS011;48969;49.934;8.596;2022-11-04T04:26:56;5.05;;;2.20;;
62880;SDS011;48969;49.934;8.596;2022-11-04T04:29:42;4.60;;;2.30;;
62880;SDS011;48969;49.934;8.596;2022-11-04T04:32:08;4.60;;;2.15;;
62880;SDS011;48969;49.934;8.596;2022-11-04T04:34:33;4.63;;;2.58;;
62880;SDS011;48969;49.934;8.596;2022-11-04T04:37:10;4.70;;;2.67;;
62880;SDS011;48969;49.934;8.596;2022-11-04T04:39:37;5.90;;;2.45;;
62880;SDS011;48969;49.934;8.596;2022-11-04T04:42:22;4.82;;;2.60;;
62880;SDS011;48969;49.934;8.596;2022-11-04T04:45:06;6.28;;;2.58;;
62880;SDS011;48969;49.934;8.596;2022-11-04T04:47:37;5.97;;;2.70;;
62880;SDS011;48969;49.934;8.596;2022-11-04T04:50:04;5.80;;;2.67;;
62880;SDS011;48969;49.934;8.596;2022-11-04T04:52:31;7.18;;;2.45;;
62880;SDS011;48969;49.934;8.596;2022-11-04T04:54:56;7.35;;;2.85;;
62880;SDS011;48969;49.934;8.596;2022-11-04T04:57:22;5.07;;;2.55;;
62880;SDS011;48969;49.934;8.596;2022-11-04T04:59:47;6.15;;;3.28;;
62880;SDS011;48969;49.934;8.596;2022-11-04T05:02:12;5.80;;;2.42;;
62880;SDS011;48969;49.934;8.596;2022-11-04T05:04:37;6.95;;;2.67;;
62880;SDS011;48969;49.934;8.596;2022-11-04T05:07:02;8.73;;;2.67;;
62880;SDS011;48969;49.934;8.596;2022-11-04T05:09:27;8.07;;;2.97;;
62880;SDS011;48969;49.934;8.596;2022-11-04T05:11:53;7.10;;;2.83;;
62880;SDS011;48969;49.934;8.596;2022-11-04T05:14:18;7.13;;;2.85;;
62880;SDS011;48969;49.934;8.596;2022-11-04T05:16:43;7.43;;;2.83;;
62880;SDS011;48969;49.934;8.596;2022-11-04T05:19:08;6.80;;;2.78;;
62880;SDS011;48969;49.934;8.596;2022-11-04T05:21:34;6.57;;;3.05;;
62880;SDS011;48969;49.934;8.596;2022-11-04T05:23:59;6.43;;;2.78;;
62880;SDS011;48969;49.934;8.596;2022-11-04T05:26:24;6.05;;;2.85;;
62880;SDS011;48969;49.934;8.596;2022-11-04T05:28:49;7.25;;;2.80;;
62880;SDS011;48969;49.934;8.596;2022-11-04T05:31:14;5.95;;;2.70;;
62880;SDS011;48969;49.934;8.596;2022-11-04T05:33:40;6.30;;;2.53;;
62880;SDS011;48969;49.934;8.596;2022-11-04T05:36:05;6.53;;;2.85;;
62880;SDS011;48969;49.934;8.596;2022-11-04T05:38:31;9.60;;;3.10;;
62880;SDS011;48969;49.934;8.596;2022-11-04T05:40:56;8.32;;;2.88;;
62880;SDS011;48969;49.934;8.596;2022-11-04T05:43:21;5.78;;;2.63;;
62880;SDS011;48969;49.934;8.596;2022-11-04T05:45:47;6.85;;;3.35;;
62880;SDS011;48969;49.934;8.596;2022-11-04T05:48:13;5.18;;;2.47;;
62880;SDS011;48969;49.934;8.596;2022-11-04T05:50:39;8.50;;;2.80;;
62880;SDS011;48969;49.934;8.596;2022-11-04T05:53:05;6.47;;;3.03;;
62880;SDS011;48969;49.934;8.596;2022-11-04T05:55:30;7.32;;;3.47;;
62880;SDS011;48969;49.934;8.596;2022-11-04T05:57:55;4.47;;;2.38;;
62880;SDS011;48969;49.934;8.596;2022-11-04T06:00:21;6.65;;;2.95;;
62880;SDS011;48969;49.934;8.596;2022-11-04T06:02:46;8.00;;;3.60;;
62880;SDS011;48969;49.934;8.596;2022-11-04T06:05:12;8.30;;;3.30;;
62880;SDS011;48969;49.934;8.596;2022-11-04T06:07:37;6.75;;;2.95;;
62880;SDS011;48969;49.934;8.596;2022-11-04T06:10:02;7.82;;;2.92;;
62880;SDS011;48969;49.934;8.596;2022-11-04T06:12:27;9.13;;;3.08;;
62880;SDS011;48969;49.934;8.596;2022-11-04T06:14:52;8.90;;;2.97;;
62880;SDS011;48969;49.934;8.596;2022-11-04T06:17:21;12.07;;;2.70;;
62880;SDS011;48969;49.934;8.596;2022-11-04T06:19:46;7.18;;;3.47;;
62880;SDS011;48969;49.934;8.596;2022-11-04T06:22:12;7.50;;;3.10;;
62880;SDS011;48969;49.934;8.596;2022-11-04T06:24:38;8.48;;;2.78;;
62880;SDS011;48969;49.934;8.596;2022-11-04T06:27:03;6.88;;;2.78;;
62880;SDS011;48969;49.934;8.596;2022-11-04T06:29:28;6.47;;;2.67;;
62880;SDS011;48969;49.934;8.596;2022-11-04T06:31:54;7.20;;;2.70;;
62880;SDS011;48969;49.934;8.596;2022-11-04T06:34:19;7.47;;;3.40;;
62880;SDS011;48969;49.934;8.596;2022-11-04T06:36:44;6.13;;;2.50;;
62880;SDS011;48969;49.934;8.596;2022-11-04T06:39:09;7.50;;;2.80;;
62880;SDS011;48969;49.934;8.596;2022-11-04T06:41:34;5.95;;;2.72;;
62880;SDS011;48969;49.934;8.596;2022-11-04T06:43:59;8.57;;;3.43;;
62880;SDS011;48969;49.934;8.596;2022-11-04T06:46:37;7.57;;;2.92;;
62880;SDS011;48969;49.934;8.596;2022-11-04T06:49:08;6.05;;;2.55;;
62880;SDS011;48969;49.934;8.596;2022-11-04T06:51:34;6.60;;;2.63;;
62880;SDS011;48969;49.934;8.596;2022-11-04T06:53:59;6.25;;;2.80;;
62880;SDS011;48969;49.934;8.596;2022-11-04T06:56:24;5.15;;;2.40;;
62880;SDS011;48969;49.934;8.596;2022-11-04T06:58:50;7.88;;;2.47;;
62880;SDS011;48969;49.934;8.596;2022-11-04T07:01:16;6.20;;;2.58;;
62880;SDS011;48969;49.934;8.596;2022-11-04T07:03:42;6.70;;;2.75;;
62880;SDS011;48969;49.934;8.596;2022-11-04T07:06:07;7.40;;;2.40;;
62880;SDS011;48969;49.934;8.596;2022-11-04T07:08:33;7.63;;;2.47;;
62880;SDS011;48969;49.934;8.596;2022-11-04T07:10:58;6.68;;;2.60;;
62880;SDS011;48969;49.934;8.596;2022-11-04T07:13:23;8.23;;;2.50;;
62880;SDS011;48969;49.934;8.596;2022-11-04T07:15:49;5.77;;;2.30;;
62880;SDS011;48969;49.934;8.596;2022-11-04T07:18:14;6.80;;;2.80;;
62880;SDS011;48969;49.934;8.596;2022-11-04T07:20:39;8.82;;;2.22;;
62880;SDS011;48969;49.934;8.596;2022-11-04T07:23:04;7.70;;;2.43;;
62880;SDS011;48969;49.934;8.596;2022-11-04T07:25:29;7.68;;;2.35;;
62880;SDS011;48969;49.934;8.596;2022-11-04T07:27:55;4.80;;;2.20;;
62880;SDS011;48969;49.934;8.596;2022-11-04T07:30:20;7.18;;;2.20;;
62880;SDS011;48969;49.934;8.596;2022-11-04T07:32:45;5.90;;;2.55;;
62880;SDS011;48969;49.934;8.596;2022-11-04T07:35:11;5.43;;;2.60;;
62880;SDS011;48969;49.934;8.596;2022-11-04T07:37:36;6.53;;;2.75;;
62880;SDS011;48969;49.934;8.596;2022-11-04T07:40:02;4.82;;;2.15;;
62880;SDS011;48969;49.934;8.596;2022-11-04T07:42:28;4.53;;;2.10;;
62880;SDS011;48969;49.934;8.596;2022-11-04T07:44:53;4.40;;;2.30;;
62880;SDS011;48969;49.934;8.596;2022-11-04T07:47:18;5.40;;;2.15;;
62880;SDS011;48969;49.934;8.596;2022-11-04T07:49:44;5.70;;;2.20;;
62880;SDS011;48969;49.934;8.596;2022-11-04T07:52:09;7.15;;;2.25;;
62880;SDS011;48969;49.934;8.596;2022-11-04T07:54:34;7.13;;;2.75;;
62880;SDS011;48969;49.934;8.596;2022-11-04T07:56:59;5.82;;;2.30;;
62880;SDS011;48969;49.934;8.596;2022-11-04T07:59:24;5.40;;;2.47;;
62880;SDS011;48969;49.934;8.596;2022-11-04T08:01:49;5.65;;;2.38;;
62880;SDS011;48969;49.934;8.596;2022-11-04T08:04:15;6.70;;;2.33;;
62880;SDS011;48969;49.934;8.596;2022-11-04T08:06:40;4.97;;;2.27;;
62880;SDS011;48969;49.934;8.596;2022-11-04T08:09:05;7.53;;;2.10;;
62880;SDS011;48969;49.934;8.596;2022-11-04T08:11:30;5.38;;;2.03;;
62880;SDS011;48969;49.934;8.596;2022-11-04T08:13:55;7.15;;;2.45;;
62880;SDS011;48969;49.934;8.596;2022-11-04T08:16:21;5.35;;;2.58;;
62880;SDS011;48969;49.934;8.596;2022-11-04T08:18:48;5.93;;;2.83;;
62880;SDS011;48969;49.934;8.596;2022-11-04T08:21:14;5.97;;;2.40;;
62880;SDS011;48969;49.934;8.596;2022-11-04T08:23:39;6.53;;;2.38;;
62880;SDS011;48969;49.934;8.596;2022-11-04T08:26:08;7.65;;;2.72;;
62880;SDS011;48969;49.934;8.596;2022-11-04T08:28:34;6.10;;;2.30;;
62880;SDS011;48969;49.934;8.596;2022-11-04T08:31:03;7.97;;;2.65;;
62880;SDS011;48969;49.934;8.596;2022-11-04T08:33:31;4.38;;;2.38;;
62880;SDS011;48969;49.934;8.596;2022-11-04T08:36:08;5.35;;;2.28;;
62880;SDS011;48969;49.934;8.596;2022-11-04T08:38:33;7.38;;;2.58;;
62880;SDS011;48969;49.934;8.596;2022-11-04T08:41:01;7.82;;;2.72;;
62880;SDS011;48969;49.934;8.596;2022-11-04T08:43:27;6.88;;;2.50;;
62880;SDS011;48969;49.934;8.596;2022-11-04T08:45:53;5.90;;;2.80;;
62880;SDS011;48969;49.934;8.596;2022-11-04T08:48:18;6.05;;;2.40;;
62880;SDS011;48969;49.934;8.596;2022-11-04T08:50:47;6.47;;;2.65;;
62880;SDS011;48969;49.934;8.596;2022-11-04T08:53:12;5.57;;;2.25;;
62880;SDS011;48969;49.934;8.596;2022-11-04T08:55:37;5.53;;;2.33;;
62880;SDS011;48969;49.934;8.596;2022-11-04T08:58:03;6.32;;;2.40;;
62880;SDS011;48969;49.934;8.596;2022-11-04T09:00:28;6.38;;;2.70;;
62880;SDS011;48969;49.934;8.596;2022-11-04T09:02:53;5.43;;;2.47;;
62880;SDS011;48969;49.934;8.596;2022-11-04T09:05:20;5.60;;;2.40;;
62880;SDS011;48969;49.934;8.596;2022-11-04T09:07:45;5.60;;;2.70;;
62880;SDS011;48969;49.934;8.596;2022-11-04T09:10:11;3.05;;;2.28;;
62880;SDS011;48969;49.934;8.596;2022-11-04T09:12:38;3.38;;;2.05;;
62880;SDS011;48969;49.934;8.596;2022-11-04T09:15:03;6.37;;;2.63;;
62880;SDS011;48969;49.934;8.596;2022-11-04T09:17:30;6.20;;;2.42;;
62880;SDS011;48969;49.934;8.596;2022-11-04T09:19:55;3.92;;;2.28;;
62880;SDS011;48969;49.934;8.596;2022-11-04T09:22:21;5.40;;;2.00;;
62880;SDS011;48969;49.934;8.596;2022-11-04T09:24:46;4.75;;;2.60;;
62880;SDS011;48969;49.934;8.596;2022-11-04T09:27:12;5.95;;;2.53;;
62880;SDS011;48969;49.934;8.596;2022-11-04T09:29:38;9.55;;;2.70;;
62880;SDS011;48969;49.934;8.596;2022-11-04T09:32:03;7.97;;;3.00;;
62880;SDS011;48969;49.934;8.596;2022-11-04T09:34:29;6.40;;;2.80;;
62880;SDS011;48969;49.934;8.596;2022-11-04T09:36:54;5.72;;;2.47;;
62880;SDS011;48969;49.934;8.596;2022-11-04T09:39:20;6.95;;;2.55;;
62880;SDS011;48969;49.934;8.596;2022-11-04T09:46:59;6.78;;;2.60;;
62880;SDS011;48969;49.934;8.596;2022-11-04T09:49:26;4.97;;;2.53;;
62880;SDS011;48969;49.934;8.596;2022-11-04T09:51:52;5.75;;;2.90;;
62880;SDS011;48969;49.934;8.596;2022-11-04T09:54:26;6.55;;;2.42;;
62880;SDS011;48969;49.934;8.596;2022-11-04T09:56:53;5.18;;;2.63;;
62880;SDS011;48969;49.934;8.596;2022-11-04T09:59:20;6.18;;;2.70;;
62880;SDS011;48969;49.934;8.596;2022-11-04T10:02:00;4.20;;;2.58;;
62880;SDS011;48969;49.934;8.596;2022-11-04T10:04:32;7.93;;;2.72;;
62880;SDS011;48969;49.934;8.596;2022-11-04T10:14:36;6.38;;;2.40;;
62880;SDS011;48969;49.934;8.596;2022-11-04T10:17:29;7.22;;;2.20;;
62880;SDS011;48969;49.934;8.596;2022-11-04T10:24:53;4.18;;;2.03;;
62880;SDS011;48969;49.934;8.596;2022-11-04T10:27:21;5.50;;;1.92;;
62880;SDS011;48969;49.934;8.596;2022-11-04T10:30:12;6.93;;;2.40;;
62880;SDS011;48969;49.934;8.596;2022-11-04T10:37:47;5.55;;;2.05;;
62880;SDS011;48969;49.934;8.596;2022-11-04T10:42:41;7.63;;;2.22;;
62880;SDS011;48969;49.934;8.596;2022-11-04T10:45:09;5.35;;;2.10;;
62880;SDS011;48969;49.934;8.596;2022-11-04T10:47:44;8.65;;;2.25;;
62880;SDS011;48969;49.934;8.596;2022-11-04T10:52:36;8.18;;;2.60;;
62880;SDS011;48969;49.934;8.596;2022-11-04T10:55:02;9.50;;;2.45;;
62880;SDS011;48969;49.934;8.596;2022-11-04T10:57:28;5.82;;;2.08;;
62880;SDS011;48969;49.934;8.596;2022-11-04T10:59:57;4.35;;;1.98;;
62880;SDS011;48969;49.934;8.596;2022-11-04T11:05:13;5.80;;;1.80;;
62880;SDS011;48969;49.934;8.596;2022-11-04T11:07:39;7.82;;;2.03;;
62880;SDS011;48969;49.934;8.596;2022-11-04T11:10:04;6.57;;;2.10;;
62880;SDS011;48969;49.934;8.596;2022-11-04T11:12:30;3.75;;;1.48;;
62880;SDS011;48969;49.934;8.596;2022-11-04T11:15:20;8.00;;;2.10;;
62880;SDS011;48969;49.934;8.596;2022-11-04T11:17:50;5.10;;;1.55;;
62880;SDS011;48969;49.934;8.596;2022-11-04T11:20:20;6.13;;;1.80;;
62880;SDS011;48969;49.934;8.596;2022-11-04T11:22:47;6.05;;;1.80;;
62880;SDS011;48969;49.934;8.596;2022-11-04T11:25:16;4.38;;;1.65;;
62880;SDS011;48969;49.934;8.596;2022-11-04T11:27:44;4.53;;;1.60;;
62880;SDS011;48969;49.934;8.596;2022-11-04T11:30:18;6.18;;;2.17;;
62880;SDS011;48969;49.934;8.596;2022-11-04T11:32:43;5.85;;;1.70;;
62880;SDS011;48969;49.934;8.596;2022-11-04T11:35:15;6.35;;;1.75;;
62880;SDS011;48969;49.934;8.596;2022-11-04T11:37:43;6.43;;;2.10;;
62880;SDS011;48969;49.934;8.596;2022-11-04T11:40:22;6.85;;;2.22;;
62880;SDS011;48969;49.934;8.596;2022-11-04T11:42:48;6.63;;;1.90;;
62880;SDS011;48969;49.934;8.596;2022-11-04T11:45:15;7.03;;;1.92;;
62880;SDS011;48969;49.934;8.596;2022-11-04T11:47:40;7.35;;;1.95;;
62880;SDS011;48969;49.934;8.596;2022-11-04T11:52:39;4.38;;;2.05;;
62880;SDS011;48969;49.934;8.596;2022-11-04T12:00:09;6.43;;;1.70;;
62880;SDS011;48969;49.934;8.596;2022-11-04T12:05:22;5.53;;;1.70;;
62880;SDS011;48969;49.934;8.596;2022-11-04T12:07:55;5.28;;;1.60;;
62880;SDS011;48969;49.934;8.596;2022-11-04T12:13:26;6.78;;;1.95;;
62880;SDS011;48969;49.934;8.596;2022-11-04T12:15:59;5.80;;;1.80;;
62880;SDS011;48969;49.934;8.596;2022-11-04T12:21:18;7.38;;;1.90;;
62880;SDS011;48969;49.934;8.596;2022-11-04T12:24:07;9.35;;;2.22;;
62880;SDS011;48969;49.934;8.596;2022-11-04T12:26:43;5.95;;;2.00;;
62880;SDS011;48969;49.934;8.596;2022-11-04T12:39:34;7.63;;;2.20;;
62880;SDS011;48969;49.934;8.596;2022-11-04T12:44:42;6.35;;;2.15;;
62880;SDS011;48969;49.934;8.596;2022-11-04T12:47:53;7.25;;;2.05;;
62880;SDS011;48969;49.934;8.596;2022-11-04T12:52:43;5.75;;;1.80;;
62880;SDS011;48969;49.934;8.596;2022-11-04T13:06:10;6.43;;;1.90;;
62880;SDS011;48969;49.934;8.596;2022-11-04T13:11:33;10.05;;;2.05;;
62880;SDS011;48969;49.934;8.596;2022-11-04T13:27:00;4.43;;;1.83;;
62880;SDS011;48969;49.934;8.596;2022-11-04T13:29:38;5.07;;;2.05;;
62880;SDS011;48969;49.934;8.596;2022-11-04T13:32:11;4.55;;;1.50;;
62880;SDS011;48969;49.934;8.596;2022-11-04T13:48:34;6.87;;;2.47;;
62880;SDS011;48969;49.934;8.596;2022-11-04T14:04:40;4.38;;;1.80;;
62880;SDS011;48969;49.934;8.596;2022-11-04T14:13:03;3.47;;;1.90;;
62880;SDS011;48969;49.934;8.596;2022-11-04T14:16:11;5.40;;;2.20;;
62880;SDS011;48969;49.934;8.596;2022-11-04T14:22:14;4.30;;;1.70;;
62880;SDS011;48969;49.934;8.596;2022-11-04T14:57:06;6.32;;;2.30;;
62880;SDS011;48969;49.934;8.596;2022-11-04T15:19:26;3.95;;;2.50;;
62880;SDS011;48969;49.934;8.596;2022-11-04T15:21:53;4.35;;;2.63;;
62880;SDS011;48969;49.934;8.596;2022-11-04T15:24:18;6.07;;;2.90;;
62880;SDS011;48969;49.934;8.596;2022-11-04T15:26:47;5.35;;;2.90;;
62880;SDS011;48969;49.934;8.596;2022-11-04T15:29:14;5.47;;;3.10;;
62880;SDS011;48969;49.934;8.596;2022-11-04T15:31:49;5.65;;;3.13;;
62880;SDS011;48969;49.934;8.596;2022-11-04T15:34:15;4.95;;;2.70;;
62880;SDS011;48969;49.934;8.596;2022-11-04T15:36:43;5.40;;;2.88;;
62880;SDS011;48969;49.934;8.596;2022-11-04T15:41:58;6.22;;;3.47;;
62880;SDS011;48969;49.934;8.596;2022-11-04T15:44:45;6.68;;;3.33;;
62880;SDS011;48969;49.934;8.596;2022-11-04T15:56:43;16.15;;;4.40;;
62880;SDS011;48969;49.934;8.596;2022-11-04T16:16:58;7.22;;;3.70;;
62880;SDS011;48969;49.934;8.596;2022-11-04T16:19:45;6.40;;;3.33;;
62880;SDS011;48969;49.934;8.596;2022-11-04T16:22:37;5.13;;;3.40;;
62880;SDS011;48969;49.934;8.596;2022-11-04T16:31:25;6.53;;;3.63;;
62880;SDS011;48969;49.934;8.596;2022-11-04T16:41:56;10.85;;;6.07;;
62880;SDS011;48969;49.934;8.596;2022-11-04T16:47:53;9.32;;;3.90;;
62880;SDS011;48969;49.934;8.596;2022-11-04T16:50:27;8.50;;;3.75;;
62880;SDS011;48969;49.934;8.596;2022-11-04T16:53:12;7.03;;;4.15;;
62880;SDS011;48969;49.934;8.596;2022-11-04T16:58:29;7.30;;;3.38;;
62880;SDS011;48969;49.934;8.596;2022-11-04T17:01:07;8.27;;;3.53;;
62880;SDS011;48969;49.934;8.596;2022-11-04T17:03:54;9.68;;;3.70;;
62880;SDS011;48969;49.934;8.596;2022-11-04T17:06:24;6.65;;;4.03;;
62880;SDS011;48969;49.934;8.596;2022-11-04T17:08:53;7.22;;;3.60;;
62880;SDS011;48969;49.934;8.596;2022-11-04T17:11:39;7.88;;;3.38;;
62880;SDS011;48969;49.934;8.596;2022-11-04T17:14:18;4.82;;;3.35;;
62880;SDS011;48969;49.934;8.596;2022-11-04T17:16:46;8.13;;;3.70;;
62880;SDS011;48969;49.934;8.596;2022-11-04T17:19:14;7.90;;;3.92;;
62880;SDS011;48969;49.934;8.596;2022-11-04T17:21:45;6.00;;;4.32;;
62880;SDS011;48969;49.934;8.596;2022-11-04T17:24:34;5.28;;;3.85;;
62880;SDS011;48969;49.934;8.596;2022-11-04T17:27:06;6.22;;;3.90;;
62880;SDS011;48969;49.934;8.596;2022-11-04T17:33:01;6.90;;;3.80;;
62880;SDS011;48969;49.934;8.596;2022-11-04T17:38:18;7.28;;;3.90;;
62880;SDS011;48969;49.934;8.596;2022-11-04T17:41:22;6.05;;;4.60;;
62880;SDS011;48969;49.934;8.596;2022-11-04T17:44:09;8.30;;;5.60;;
62880;SDS011;48969;49.934;8.596;2022-11-04T17:55:17;10.45;;;8.07;;
62880;SDS011;48969;49.934;8.596;2022-11-04T18:09:49;9.10;;;7.05;;
62880;SDS011;48969;49.934;8.596;2022-11-04T18:15:44;15.70;;;10.68;;
62880;SDS011;48969;49.934;8.596;2022-11-04T18:18:33;12.90;;;7.22;;
62880;SDS011;48969;49.934;8.596;2022-11-04T18:21:17;9.82;;;6.43;;
62880;SDS011;48969;49.934;8.596;2022-11-04T18:23:45;7.78;;;5.63;;
62880;SDS011;48969;49.934;8.596;2022-11-04T18:40:15;9.43;;;5.97;;
62880;SDS011;48969;49.934;8.596;2022-11-04T18:43:06;9.93;;;6.40;;
62880;SDS011;48969;49.934;8.596;2022-11-04T18:45:49;8.68;;;6.28;;
62880;SDS011;48969;49.934;8.596;2022-11-04T18:48:14;7.38;;;5.85;;
62880;SDS011;48969;49.934;8.596;2022-11-04T18:53:54;8.48;;;6.60;;
62880;SDS011;48969;49.934;8.596;2022-11-04T18:56:20;11.15;;;7.15;;
62880;SDS011;48969;49.934;8.596;2022-11-04T19:07:53;10.10;;;6.40;;
62880;SDS011;48969;49.934;8.596;2022-11-04T19:13:12;6.78;;;5.03;;
62880;SDS011;48969;49.934;8.596;2022-11-04T19:18:59;8.32;;;6.43;;
62880;SDS011;48969;49.934;8.596;2022-11-04T19:21:34;9.10;;;6.25;;
62880;SDS011;48969;49.934;8.596;2022-11-04T19:23:59;9.70;;;7.38;;
62880;SDS011;48969;49.934;8.596;2022-11-04T19:26:54;16.00;;;11.82;;
62880;SDS011;48969;49.934;8.596;2022-11-04T19:29:23;7.78;;;6.97;;
62880;SDS011;48969;49.934;8.596;2022-11-04T19:32:07;9.18;;;6.72;;
62880;SDS011;48969;49.934;8.596;2022-11-04T19:37:43;7.72;;;5.50;;
62880;SDS011;48969;49.934;8.596;2022-11-04T19:42:57;8.18;;;5.10;;
62880;SDS011;48969;49.934;8.596;2022-11-04T19:46:04;9.38;;;6.57;;
62880;SDS011;48969;49.934;8.596;2022-11-04T19:52:05;8.73;;;6.07;;
62880;SDS011;48969;49.934;8.596;2022-11-04T20:00:32;8.10;;;6.70;;
62880;SDS011;48969;49.934;8.596;2022-11-04T20:03:17;7.72;;;6.53;;
62880;SDS011;48969;49.934;8.596;2022-11-04T20:06:15;8.50;;;6.55;;
62880;SDS011;48969;49.934;8.596;2022-11-04T20:15:06;8.27;;;5.80;;
62880;SDS011;48969;49.934;8.596;2022-11-04T20:17:59;7.18;;;5.85;;
62880;SDS011;48969;49.934;8.596;2022-11-04T20:26:34;8.43;;;6.75;;
62880;SDS011;48969;49.934;8.596;2022-11-04T20:29:22;9.35;;;7.65;;
62880;SDS011;48969;49.934;8.596;2022-11-04T20:31:49;10.23;;;7.65;;
62880;SDS011;48969;49.934;8.596;2022-11-04T20:34:23;8.75;;;7.95;;
62880;SDS011;48969;49.934;8.596;2022-11-04T20:36:48;9.32;;;7.70;;
62880;SDS011;48969;49.934;8.596;2022-11-04T20:39:45;9.88;;;8.23;;
62880;SDS011;48969;49.934;8.596;2022-11-04T20:42:27;8.48;;;7.40;;
62880;SDS011;48969;49.934;8.596;2022-11-04T20:45:16;8.45;;;7.55;;
62880;SDS011;48969;49.934;8.596;2022-11-04T20:47:52;9.60;;;7.95;;
62880;SDS011;48969;49.934;8.596;2022-11-04T20:50:22;9.77;;;8.07;;
62880;SDS011;48969;49.934;8.596;2022-11-04T20:52:50;9.55;;;8.55;;
62880;SDS011;48969;49.934;8.596;2022-11-04T20:58:33;9.32;;;7.78;;
62880;SDS011;48969;49.934;8.596;2022-11-04T21:01:12;9.40;;;7.63;;
62880;SDS011;48969;49.934;8.596;2022-11-04T21:03:57;8.68;;;7.68;;
62880;SDS011;48969;49.934;8.596;2022-11-04T21:06:36;11.05;;;9.13;;